sensor_id;sensor_type;location;lat;lon;timestamp;P1;durP1;ratioP1;P2;durP2;ratioP2
10063;SDS011;5071;52.360;13.134;2023-02-01T00:03:19;8.07;;;1.70;;
10063;SDS011;5071;52.360;13.134;2023-02-01T00:08:22;11.13;;;1.80;;
10063;SDS011;5071;52.360;13.134;2023-02-01T00:13:24;14.67;;;2.17;;
10063;SDS011;5071;52.360;13.134;2023-02-01T00:18:28;8.97;;;1.40;;
10063;SDS011;5071;52.360;13.134;2023-02-01T00:23:32;13.30;;;2.17;;
10063;SDS011;5071;52.360;13.134;2023-02-01T00:28:35;13.73;;;2.60;;
10063;SDS011;5071;52.360;13.134;2023-02-01T00:33:38;11.73;;;1.80;;
10063;SDS011;5071;52.360;13.134;2023-02-01T00:38:41;9.87;;;2.07;;
10063;SDS011;5071;52.360;13.134;2023-02-01T00:43:43;12.40;;;1.43;;
10063;SDS011;5071;52.360;13.134;2023-02-01T00:48:47;9.87;;;1.60;;
10063;SDS011;5071;52.360;13.134;2023-02-01T00:53:49;7.07;;;1.60;;
10063;SDS011;5071;52.360;13.134;2023-02-01T00:58:52;5.27;;;1.50;;
10063;SDS011;5071;52.360;13.134;2023-02-01T01:03:56;6.93;;;1.40;;
10063;SDS011;5071;52.360;13.134;2023-02-01T01:09:00;2.13;;;1.30;;
10063;SDS011;5071;52.360;13.134;2023-02-01T01:14:05;10.63;;;1.60;;
10063;SDS011;5071;52.360;13.134;2023-02-01T01:19:11;9.30;;;1.83;;
10063;SDS011;5071;52.360;13.134;2023-02-01T01:24:14;7.70;;;1.10;;
10063;SDS011;5071;52.360;13.134;2023-02-01T01:29:16;9.57;;;1.30;;
10063;SDS011;5071;52.360;13.134;2023-02-01T01:34:20;8.37;;;1.60;;
10063;SDS011;5071;52.360;13.134;2023-02-01T01:39:22;5.53;;;1.43;;
10063;SDS011;5071;52.360;13.134;2023-02-01T01:50:00;9.33;;;1.73;;
10063;SDS011;5071;52.360;13.134;2023-02-01T01:55:06;9.33;;;2.07;;
10063;SDS011;5071;52.360;13.134;2023-02-01T02:00:10;7.10;;;1.37;;
10063;SDS011;5071;52.360;13.134;2023-02-01T02:05:16;6.23;;;1.67;;
10063;SDS011;5071;52.360;13.134;2023-02-01T02:10:19;9.93;;;2.30;;
10063;SDS011;5071;52.360;13.134;2023-02-01T02:15:22;6.53;;;1.30;;
10063;SDS011;5071;52.360;13.134;2023-02-01T02:20:42;7.30;;;1.90;;
10063;SDS011;5071;52.360;13.134;2023-02-01T02:26:06;11.30;;;1.67;;
10063;SDS011;5071;52.360;13.134;2023-02-01T02:31:30;6.83;;;2.10;;
10063;SDS011;5071;52.360;13.134;2023-02-01T02:36:56;8.70;;;1.67;;
10063;SDS011;5071;52.360;13.134;2023-02-01T02:42:07;8.10;;;1.53;;
10063;SDS011;5071;52.360;13.134;2023-02-01T02:47:16;10.70;;;2.20;;
10063;SDS011;5071;52.360;13.134;2023-02-01T02:52:26;12.70;;;2.00;;
10063;SDS011;5071;52.360;13.134;2023-02-01T02:57:30;6.80;;;1.90;;
10063;SDS011;5071;52.360;13.134;2023-02-01T03:02:37;15.77;;;2.00;;
10063;SDS011;5071;52.360;13.134;2023-02-01T03:07:48;11.07;;;2.63;;
10063;SDS011;5071;52.360;13.134;2023-02-01T03:12:58;13.90;;;2.20;;
10063;SDS011;5071;52.360;13.134;2023-02-01T03:18:04;8.67;;;1.70;;
10063;SDS011;5071;52.360;13.134;2023-02-01T03:23:15;11.77;;;1.77;;
10063;SDS011;5071;52.360;13.134;2023-02-01T03:28:22;7.80;;;1.67;;
10063;SDS011;5071;52.360;13.134;2023-02-01T03:33:25;14.57;;;1.93;;
10063;SDS011;5071;52.360;13.134;2023-02-01T03:38:31;8.93;;;1.90;;
10063;SDS011;5071;52.360;13.134;2023-02-01T03:43:36;9.30;;;2.10;;
10063;SDS011;5071;52.360;13.134;2023-02-01T03:48:47;6.80;;;1.37;;
10063;SDS011;5071;52.360;13.134;2023-02-01T03:53:53;9.00;;;1.80;;
10063;SDS011;5071;52.360;13.134;2023-02-01T03:58:56;13.63;;;2.03;;
10063;SDS011;5071;52.360;13.134;2023-02-01T04:03:59;7.73;;;2.07;;
10063;SDS011;5071;52.360;13.134;2023-02-01T04:09:03;13.70;;;1.80;;
10063;SDS011;5071;52.360;13.134;2023-02-01T04:14:05;12.03;;;2.80;;
10063;SDS011;5071;52.360;13.134;2023-02-01T04:19:07;8.53;;;2.33;;
10063;SDS011;5071;52.360;13.134;2023-02-01T04:24:11;8.70;;;1.50;;
10063;SDS011;5071;52.360;13.134;2023-02-01T04:29:13;14.73;;;2.73;;
10063;SDS011;5071;52.360;13.134;2023-02-01T04:34:15;6.50;;;1.57;;
10063;SDS011;5071;52.360;13.134;2023-02-01T04:39:19;15.13;;;3.20;;
10063;SDS011;5071;52.360;13.134;2023-02-01T04:44:21;5.50;;;1.43;;
10063;SDS011;5071;52.360;13.134;2023-02-01T04:49:24;9.43;;;1.60;;
10063;SDS011;5071;52.360;13.134;2023-02-01T04:54:27;12.53;;;2.57;;
10063;SDS011;5071;52.360;13.134;2023-02-01T04:59:29;11.87;;;2.50;;
10063;SDS011;5071;52.360;13.134;2023-02-01T05:04:31;9.77;;;1.83;;
10063;SDS011;5071;52.360;13.134;2023-02-01T05:09:35;6.07;;;1.37;;
10063;SDS011;5071;52.360;13.134;2023-02-01T05:14:37;11.57;;;2.37;;
10063;SDS011;5071;52.360;13.134;2023-02-01T05:19:39;10.63;;;1.80;;
10063;SDS011;5071;52.360;13.134;2023-02-01T05:24:43;13.20;;;2.10;;
10063;SDS011;5071;52.360;13.134;2023-02-01T05:29:46;10.10;;;2.00;;
10063;SDS011;5071;52.360;13.134;2023-02-01T05:34:47;11.10;;;1.87;;
10063;SDS011;5071;52.360;13.134;2023-02-01T05:39:51;8.20;;;1.87;;
10063;SDS011;5071;52.360;13.134;2023-02-01T05:44:53;10.30;;;1.77;;
10063;SDS011;5071;52.360;13.134;2023-02-01T05:49:55;14.00;;;2.33;;
10063;SDS011;5071;52.360;13.134;2023-02-01T05:54:59;12.67;;;2.23;;
10063;SDS011;5071;52.360;13.134;2023-02-01T06:00:01;8.47;;;2.03;;
10063;SDS011;5071;52.360;13.134;2023-02-01T06:05:04;6.00;;;1.90;;
10063;SDS011;5071;52.360;13.134;2023-02-01T06:10:10;10.13;;;2.57;;
10063;SDS011;5071;52.360;13.134;2023-02-01T06:15:12;9.60;;;2.13;;
10063;SDS011;5071;52.360;13.134;2023-02-01T06:20:15;8.13;;;2.00;;
10063;SDS011;5071;52.360;13.134;2023-02-01T06:25:20;5.10;;;1.60;;
10063;SDS011;5071;52.360;13.134;2023-02-01T06:30:22;8.80;;;2.10;;
10063;SDS011;5071;52.360;13.134;2023-02-01T06:35:24;10.57;;;2.20;;
10063;SDS011;5071;52.360;13.134;2023-02-01T06:40:29;11.13;;;1.50;;
10063;SDS011;5071;52.360;13.134;2023-02-01T06:45:30;8.97;;;2.33;;
10063;SDS011;5071;52.360;13.134;2023-02-01T06:50:33;12.53;;;2.97;;
10063;SDS011;5071;52.360;13.134;2023-02-01T06:55:36;7.70;;;1.67;;
10063;SDS011;5071;52.360;13.134;2023-02-01T07:00:38;15.47;;;2.00;;
10063;SDS011;5071;52.360;13.134;2023-02-01T07:05:40;11.30;;;2.17;;
10063;SDS011;5071;52.360;13.134;2023-02-01T07:10:44;9.53;;;2.13;;
10063;SDS011;5071;52.360;13.134;2023-02-01T07:15:46;6.70;;;1.63;;
10063;SDS011;5071;52.360;13.134;2023-02-01T07:20:49;8.90;;;1.90;;
10063;SDS011;5071;52.360;13.134;2023-02-01T07:25:54;9.17;;;2.43;;
10063;SDS011;5071;52.360;13.134;2023-02-01T07:31:01;7.73;;;2.00;;
10063;SDS011;5071;52.360;13.134;2023-02-01T07:36:05;10.13;;;2.30;;
10063;SDS011;5071;52.360;13.134;2023-02-01T07:41:09;10.67;;;2.27;;
10063;SDS011;5071;52.360;13.134;2023-02-01T07:46:12;13.13;;;2.67;;
10063;SDS011;5071;52.360;13.134;2023-02-01T07:51:15;7.57;;;2.20;;
10063;SDS011;5071;52.360;13.134;2023-02-01T07:56:20;9.27;;;2.23;;
10063;SDS011;5071;52.360;13.134;2023-02-01T08:01:23;9.40;;;2.07;;
10063;SDS011;5071;52.360;13.134;2023-02-01T08:06:27;9.27;;;2.23;;
10063;SDS011;5071;52.360;13.134;2023-02-01T08:11:33;12.20;;;2.63;;
10063;SDS011;5071;52.360;13.134;2023-02-01T08:16:35;9.17;;;2.93;;
10063;SDS011;5071;52.360;13.134;2023-02-01T08:21:38;7.13;;;2.37;;
10063;SDS011;5071;52.360;13.134;2023-02-01T08:26:41;11.33;;;2.67;;
10063;SDS011;5071;52.360;13.134;2023-02-01T08:31:44;9.53;;;2.43;;
10063;SDS011;5071;52.360;13.134;2023-02-01T08:36:46;7.67;;;2.03;;
10063;SDS011;5071;52.360;13.134;2023-02-01T08:41:49;3.90;;;1.73;;
10063;SDS011;5071;52.360;13.134;2023-02-01T08:46:51;6.57;;;1.67;;
10063;SDS011;5071;52.360;13.134;2023-02-01T08:51:54;5.50;;;1.53;;
10063;SDS011;5071;52.360;13.134;2023-02-01T08:57:02;2.47;;;1.67;;
10063;SDS011;5071;52.360;13.134;2023-02-01T09:02:05;3.20;;;1.63;;
10063;SDS011;5071;52.360;13.134;2023-02-01T09:07:07;8.07;;;2.00;;
10063;SDS011;5071;52.360;13.134;2023-02-01T09:12:11;6.57;;;2.00;;
10063;SDS011;5071;52.360;13.134;2023-02-01T09:17:13;4.47;;;1.83;;
10063;SDS011;5071;52.360;13.134;2023-02-01T09:22:15;5.73;;;2.03;;
10063;SDS011;5071;52.360;13.134;2023-02-01T09:27:19;3.17;;;1.70;;
10063;SDS011;5071;52.360;13.134;2023-02-01T09:32:22;3.03;;;1.47;;
10063;SDS011;5071;52.360;13.134;2023-02-01T09:37:24;2.70;;;1.10;;
10063;SDS011;5071;52.360;13.134;2023-02-01T09:42:35;1.43;;;1.00;;
10063;SDS011;5071;52.360;13.134;2023-02-01T09:47:51;2.63;;;0.90;;
10063;SDS011;5071;52.360;13.134;2023-02-01T09:52:58;3.43;;;1.10;;
10063;SDS011;5071;52.360;13.134;2023-02-01T09:58:05;4.70;;;0.90;;
10063;SDS011;5071;52.360;13.134;2023-02-01T10:03:14;4.77;;;0.97;;
10063;SDS011;5071;52.360;13.134;2023-02-01T10:08:18;0.97;;;0.70;;
10063;SDS011;5071;52.360;13.134;2023-02-01T10:13:34;3.23;;;1.07;;
10063;SDS011;5071;52.360;13.134;2023-02-01T10:18:57;2.17;;;1.27;;
10063;SDS011;5071;52.360;13.134;2023-02-01T10:24:16;0.70;;;0.63;;
10063;SDS011;5071;52.360;13.134;2023-02-01T10:29:27;2.20;;;0.70;;
10063;SDS011;5071;52.360;13.134;2023-02-01T10:34:36;2.67;;;0.40;;
10063;SDS011;5071;52.360;13.134;2023-02-01T10:39:38;3.03;;;0.67;;
10063;SDS011;5071;52.360;13.134;2023-02-01T10:44:42;4.67;;;0.80;;
10063;SDS011;5071;52.360;13.134;2023-02-01T10:49:48;0.83;;;0.80;;
10063;SDS011;5071;52.360;13.134;2023-02-01T10:54:56;2.37;;;0.80;;
10063;SDS011;5071;52.360;13.134;2023-02-01T11:00:20;5.87;;;1.07;;
10063;SDS011;5071;52.360;13.134;2023-02-01T11:05:24;3.33;;;1.30;;
10063;SDS011;5071;52.360;13.134;2023-02-01T11:10:34;5.43;;;1.33;;
10063;SDS011;5071;52.360;13.134;2023-02-01T11:15:39;2.10;;;1.00;;
10063;SDS011;5071;52.360;13.134;2023-02-01T11:20:45;4.90;;;0.70;;
10063;SDS011;5071;52.360;13.134;2023-02-01T11:25:49;5.23;;;0.90;;
10063;SDS011;5071;52.360;13.134;2023-02-01T11:30:56;3.17;;;0.93;;
10063;SDS011;5071;52.360;13.134;2023-02-01T11:36:00;3.47;;;1.20;;
10063;SDS011;5071;52.360;13.134;2023-02-01T11:41:12;4.47;;;1.13;;
10063;SDS011;5071;52.360;13.134;2023-02-01T11:46:18;2.73;;;1.13;;
10063;SDS011;5071;52.360;13.134;2023-02-01T11:51:27;4.20;;;1.10;;
10063;SDS011;5071;52.360;13.134;2023-02-01T11:56:41;5.37;;;1.17;;
10063;SDS011;5071;52.360;13.134;2023-02-01T12:02:11;2.00;;;0.97;;
10063;SDS011;5071;52.360;13.134;2023-02-01T12:07:42;4.67;;;1.10;;
10063;SDS011;5071;52.360;13.134;2023-02-01T12:12:59;8.73;;;1.40;;
10063;SDS011;5071;52.360;13.134;2023-02-01T12:18:22;2.30;;;1.10;;
10063;SDS011;5071;52.360;13.134;2023-02-01T12:23:58;5.57;;;1.03;;
10063;SDS011;5071;52.360;13.134;2023-02-01T12:40:21;6.37;;;1.20;;
10063;SDS011;5071;52.360;13.134;2023-02-01T12:45:38;4.07;;;0.90;;
10063;SDS011;5071;52.360;13.134;2023-02-01T12:50:44;2.20;;;1.07;;
10063;SDS011;5071;52.360;13.134;2023-02-01T12:55:53;4.30;;;1.40;;
10063;SDS011;5071;52.360;13.134;2023-02-01T13:00:58;3.70;;;1.03;;
10063;SDS011;5071;52.360;13.134;2023-02-01T13:06:04;3.20;;;0.90;;
10063;SDS011;5071;52.360;13.134;2023-02-01T13:11:15;3.90;;;0.90;;
10063;SDS011;5071;52.360;13.134;2023-02-01T13:16:22;5.90;;;1.47;;
10063;SDS011;5071;52.360;13.134;2023-02-01T13:21:29;6.93;;;1.63;;
10063;SDS011;5071;52.360;13.134;2023-02-01T13:26:37;4.83;;;1.00;;
10063;SDS011;5071;52.360;13.134;2023-02-01T13:31:52;4.43;;;1.17;;
10063;SDS011;5071;52.360;13.134;2023-02-01T13:43:24;4.50;;;1.20;;
10063;SDS011;5071;52.360;13.134;2023-02-01T13:48:38;5.47;;;1.30;;
10063;SDS011;5071;52.360;13.134;2023-02-01T13:53:44;5.93;;;1.67;;
10063;SDS011;5071;52.360;13.134;2023-02-01T13:58:50;6.10;;;1.33;;
10063;SDS011;5071;52.360;13.134;2023-02-01T14:03:53;5.17;;;1.40;;
10063;SDS011;5071;52.360;13.134;2023-02-01T14:19:45;8.47;;;1.63;;
10063;SDS011;5071;52.360;13.134;2023-02-01T14:24:49;4.47;;;1.40;;
10063;SDS011;5071;52.360;13.134;2023-02-01T14:29:55;1.90;;;0.93;;
10063;SDS011;5071;52.360;13.134;2023-02-01T14:34:59;8.53;;;1.73;;
10063;SDS011;5071;52.360;13.134;2023-02-01T14:40:04;10.97;;;1.30;;
10063;SDS011;5071;52.360;13.134;2023-02-01T14:50:51;2.90;;;1.60;;
10063;SDS011;5071;52.360;13.134;2023-02-01T14:56:15;3.57;;;1.00;;
10063;SDS011;5071;52.360;13.134;2023-02-01T15:01:22;3.73;;;1.40;;
10063;SDS011;5071;52.360;13.134;2023-02-01T15:06:36;1.27;;;0.90;;
10063;SDS011;5071;52.360;13.134;2023-02-01T15:11:53;3.67;;;0.80;;
10063;SDS011;5071;52.360;13.134;2023-02-01T15:16:59;4.60;;;0.97;;
10063;SDS011;5071;52.360;13.134;2023-02-01T15:22:01;2.87;;;0.77;;
10063;SDS011;5071;52.360;13.134;2023-02-01T15:27:04;1.90;;;1.10;;
10063;SDS011;5071;52.360;13.134;2023-02-01T15:32:15;5.33;;;1.20;;
10063;SDS011;5071;52.360;13.134;2023-02-01T15:37:30;6.00;;;1.20;;
10063;SDS011;5071;52.360;13.134;2023-02-01T15:42:33;4.50;;;1.27;;
10063;SDS011;5071;52.360;13.134;2023-02-01T15:47:37;7.80;;;1.13;;
10063;SDS011;5071;52.360;13.134;2023-02-01T15:52:40;1.13;;;0.93;;
10063;SDS011;5071;52.360;13.134;2023-02-01T15:57:43;7.77;;;1.83;;
10063;SDS011;5071;52.360;13.134;2023-02-01T16:02:52;5.17;;;1.70;;
10063;SDS011;5071;52.360;13.134;2023-02-01T16:07:57;5.43;;;1.93;;
10063;SDS011;5071;52.360;13.134;2023-02-01T16:13:02;3.13;;;1.50;;
10063;SDS011;5071;52.360;13.134;2023-02-01T16:18:05;1.77;;;0.90;;
10063;SDS011;5071;52.360;13.134;2023-02-01T16:23:08;1.60;;;0.87;;
10063;SDS011;5071;52.360;13.134;2023-02-01T16:28:11;1.50;;;0.73;;
10063;SDS011;5071;52.360;13.134;2023-02-01T16:33:16;0.90;;;0.60;;
10063;SDS011;5071;52.360;13.134;2023-02-01T16:38:21;0.70;;;0.70;;
10063;SDS011;5071;52.360;13.134;2023-02-01T16:43:24;1.77;;;0.90;;
10063;SDS011;5071;52.360;13.134;2023-02-01T16:48:29;2.40;;;0.60;;
10063;SDS011;5071;52.360;13.134;2023-02-01T16:53:33;0.57;;;0.40;;
10063;SDS011;5071;52.360;13.134;2023-02-01T16:59:18;0.57;;;0.57;;
10063;SDS011;5071;52.360;13.134;2023-02-01T17:04:21;1.07;;;0.80;;
10063;SDS011;5071;52.360;13.134;2023-02-01T17:09:23;0.70;;;0.43;;
10063;SDS011;5071;52.360;13.134;2023-02-01T17:14:26;0.30;;;0.30;;
10063;SDS011;5071;52.360;13.134;2023-02-01T17:19:54;2.07;;;0.60;;
10063;SDS011;5071;52.360;13.134;2023-02-01T17:24:56;3.10;;;1.07;;
10063;SDS011;5071;52.360;13.134;2023-02-01T17:29:59;2.70;;;1.00;;
10063;SDS011;5071;52.360;13.134;2023-02-01T17:35:02;4.10;;;1.37;;
10063;SDS011;5071;52.360;13.134;2023-02-01T17:40:05;7.70;;;1.60;;
10063;SDS011;5071;52.360;13.134;2023-02-01T17:45:16;3.30;;;1.03;;
10063;SDS011;5071;52.360;13.134;2023-02-01T17:50:26;2.13;;;0.83;;
10063;SDS011;5071;52.360;13.134;2023-02-01T17:55:32;3.80;;;1.23;;
10063;SDS011;5071;52.360;13.134;2023-02-01T18:00:51;4.17;;;1.17;;
10063;SDS011;5071;52.360;13.134;2023-02-01T18:05:55;1.90;;;0.90;;
10063;SDS011;5071;52.360;13.134;2023-02-01T18:10:58;5.47;;;0.77;;
10063;SDS011;5071;52.360;13.134;2023-02-01T18:16:02;7.43;;;1.07;;
10063;SDS011;5071;52.360;13.134;2023-02-01T18:21:06;3.77;;;1.70;;
10063;SDS011;5071;52.360;13.134;2023-02-01T18:26:10;3.23;;;0.83;;
10063;SDS011;5071;52.360;13.134;2023-02-01T18:31:18;3.40;;;0.73;;
10063;SDS011;5071;52.360;13.134;2023-02-01T18:36:24;1.87;;;0.60;;
10063;SDS011;5071;52.360;13.134;2023-02-01T18:41:27;0.90;;;0.50;;
10063;SDS011;5071;52.360;13.134;2023-02-01T18:46:30;0.93;;;0.43;;
10063;SDS011;5071;52.360;13.134;2023-02-01T18:51:37;1.63;;;1.00;;
10063;SDS011;5071;52.360;13.134;2023-02-01T18:56:39;5.43;;;0.80;;
10063;SDS011;5071;52.360;13.134;2023-02-01T19:01:40;3.50;;;0.87;;
10063;SDS011;5071;52.360;13.134;2023-02-01T19:06:46;6.20;;;1.77;;
10063;SDS011;5071;52.360;13.134;2023-02-01T19:11:49;2.00;;;0.70;;
10063;SDS011;5071;52.360;13.134;2023-02-01T19:16:51;3.17;;;0.77;;
10063;SDS011;5071;52.360;13.134;2023-02-01T19:21:55;5.93;;;0.90;;
10063;SDS011;5071;52.360;13.134;2023-02-01T19:26:57;2.47;;;0.60;;
10063;SDS011;5071;52.360;13.134;2023-02-01T19:32:00;2.27;;;0.87;;
10063;SDS011;5071;52.360;13.134;2023-02-01T19:37:03;1.67;;;0.83;;
10063;SDS011;5071;52.360;13.134;2023-02-01T19:42:05;7.50;;;1.60;;
10063;SDS011;5071;52.360;13.134;2023-02-01T19:47:07;4.73;;;0.90;;
10063;SDS011;5071;52.360;13.134;2023-02-01T19:52:11;4.97;;;1.10;;
10063;SDS011;5071;52.360;13.134;2023-02-01T19:57:16;4.90;;;1.17;;
10063;SDS011;5071;52.360;13.134;2023-02-01T20:02:18;6.90;;;1.70;;
10063;SDS011;5071;52.360;13.134;2023-02-01T20:07:21;4.00;;;0.87;;
10063;SDS011;5071;52.360;13.134;2023-02-01T20:12:24;5.07;;;1.50;;
10063;SDS011;5071;52.360;13.134;2023-02-01T20:17:26;3.63;;;0.97;;
10063;SDS011;5071;52.360;13.134;2023-02-01T20:22:32;5.40;;;1.53;;
10063;SDS011;5071;52.360;13.134;2023-02-01T20:27:34;6.53;;;1.37;;
10063;SDS011;5071;52.360;13.134;2023-02-01T20:32:36;2.10;;;0.70;;
10063;SDS011;5071;52.360;13.134;2023-02-01T20:37:53;3.70;;;1.13;;
10063;SDS011;5071;52.360;13.134;2023-02-01T20:42:56;4.40;;;0.90;;
10063;SDS011;5071;52.360;13.134;2023-02-01T20:48:01;5.07;;;0.97;;
10063;SDS011;5071;52.360;13.134;2023-02-01T20:53:04;4.70;;;0.73;;
10063;SDS011;5071;52.360;13.134;2023-02-01T20:58:07;7.20;;;0.80;;
10063;SDS011;5071;52.360;13.134;2023-02-01T21:03:08;5.53;;;0.90;;
10063;SDS011;5071;52.360;13.134;2023-02-01T21:08:12;4.67;;;1.03;;
10063;SDS011;5071;52.360;13.134;2023-02-01T21:13:14;2.63;;;0.80;;
10063;SDS011;5071;52.360;13.134;2023-02-01T21:18:17;2.67;;;0.70;;
10063;SDS011;5071;52.360;13.134;2023-02-01T21:23:20;6.83;;;1.17;;
10063;SDS011;5071;52.360;13.134;2023-02-01T21:28:23;2.60;;;0.60;;
10063;SDS011;5071;52.360;13.134;2023-02-01T21:33:25;3.50;;;0.87;;
10063;SDS011;5071;52.360;13.134;2023-02-01T21:38:29;7.17;;;0.93;;
10063;SDS011;5071;52.360;13.134;2023-02-01T21:43:32;5.90;;;1.33;;
10063;SDS011;5071;52.360;13.134;2023-02-01T21:48:34;4.33;;;0.67;;
10063;SDS011;5071;52.360;13.134;2023-02-01T21:53:58;5.20;;;1.17;;
10063;SDS011;5071;52.360;13.134;2023-02-01T21:59:00;4.93;;;1.03;;
10063;SDS011;5071;52.360;13.134;2023-02-01T22:04:02;2.97;;;0.87;;
10063;SDS011;5071;52.360;13.134;2023-02-01T22:09:07;0.93;;;0.40;;
10063;SDS011;5071;52.360;13.134;2023-02-01T22:14:16;2.13;;;0.90;;
10063;SDS011;5071;52.360;13.134;2023-02-01T22:19:18;8.37;;;1.20;;
10063;SDS011;5071;52.360;13.134;2023-02-01T22:24:22;3.93;;;0.80;;
10063;SDS011;5071;52.360;13.134;2023-02-01T22:29:24;4.97;;;0.73;;
10063;SDS011;5071;52.360;13.134;2023-02-01T22:34:26;5.17;;;1.20;;
10063;SDS011;5071;52.360;13.134;2023-02-01T22:39:30;3.27;;;0.73;;
10063;SDS011;5071;52.360;13.134;2023-02-01T22:44:32;6.37;;;0.90;;
10063;SDS011;5071;52.360;13.134;2023-02-01T22:49:34;9.30;;;1.20;;
10063;SDS011;5071;52.360;13.134;2023-02-01T22:54:37;7.93;;;1.33;;
10063;SDS011;5071;52.360;13.134;2023-02-01T22:59:40;5.17;;;0.97;;
10063;SDS011;5071;52.360;13.134;2023-02-01T23:04:42;7.17;;;1.50;;
10063;SDS011;5071;52.360;13.134;2023-02-01T23:09:46;4.53;;;1.20;;
10063;SDS011;5071;52.360;13.134;2023-02-01T23:14:47;3.53;;;1.30;;
10063;SDS011;5071;52.360;13.134;2023-02-01T23:19:56;5.17;;;1.47;;
10063;SDS011;5071;52.360;13.134;2023-02-01T23:24:59;6.97;;;1.40;;
10063;SDS011;5071;52.360;13.134;2023-02-01T23:30:02;7.00;;;1.40;;
10063;SDS011;5071;52.360;13.134;2023-02-01T23:35:05;8.47;;;1.73;;
10063;SDS011;5071;52.360;13.134;2023-02-01T23:40:09;13.97;;;2.00;;
10063;SDS011;5071;52.360;13.134;2023-02-01T23:45:12;7.53;;;1.73;;
10063;SDS011;5071;52.360;13.134;2023-02-01T23:50:15;2.93;;;1.10;;
10063;SDS011;5071;52.360;13.134;2023-02-01T23:55:18;7.27;;;1.33;;
